createdAt,value
2017-04-26T00:00:13.481Z,944.47
2017-04-26T00:01:12.742Z,944.50
2017-04-26T00:02:13.425Z,944.52
2017-04-26T00:03:12.636Z,944.58
2017-04-26T00:04:11.587Z,944.52
2017-04-26T00:05:12.695Z,944.45
2017-04-26T00:06:13.472Z,944.44
2017-04-26T00:07:14.237Z,944.48
2017-04-26T00:08:12.844Z,944.46
2017-04-26T00:09:10.013Z,944.44
2017-04-26T00:10:13.269Z,944.44
2017-04-26T00:11:15.210Z,944.40
2017-04-26T00:12:13.886Z,944.46
2017-04-26T00:13:12.705Z,944.48
2017-04-26T00:14:14.427Z,944.50
2017-04-26T00:15:13.574Z,944.50
2017-04-26T00:16:14.951Z,944.49
2017-04-26T00:17:10.778Z,944.48
2017-04-26T00:18:14.214Z,944.48
2017-04-26T00:19:10.348Z,944.48
2017-04-26T00:20:13.292Z,944.45
2017-04-26T00:21:13.905Z,944.49
2017-04-26T00:22:12.776Z,944.46
2017-04-26T00:23:13.389Z,944.43
2017-04-26T00:24:14.135Z,944.44
2017-04-26T00:25:12.930Z,944.41
2017-04-26T00:26:12.669Z,944.50
2017-04-26T00:27:14.659Z,944.50
2017-04-26T00:28:13.550Z,944.45
2017-04-26T00:29:14.291Z,944.42
2017-04-26T00:30:13.365Z,944.40
2017-04-26T00:31:13.556Z,944.39
2017-04-26T00:32:14.017Z,944.36
2017-04-26T00:33:13.124Z,944.40
2017-04-26T00:34:13.937Z,944.40
2017-04-26T00:35:12.843Z,944.42
2017-04-26T00:36:12.794Z,944.39
2017-04-26T00:37:13.593Z,944.36
2017-04-26T00:38:13.904Z,944.37
2017-04-26T00:39:12.419Z,944.32
2017-04-26T00:40:10.424Z,944.38
2017-04-26T00:41:13.808Z,944.37
2017-04-26T00:42:13.520Z,944.33
2017-04-26T00:43:14.761Z,944.33
2017-04-26T00:44:11.949Z,944.31
2017-04-26T00:45:11.235Z,944.29
2017-04-26T00:46:13.352Z,944.29
2017-04-26T00:47:14.094Z,944.29
2017-04-26T00:48:14.103Z,944.34
2017-04-26T00:49:13.033Z,944.33
2017-04-26T00:50:13.731Z,944.34
2017-04-26T00:51:13.410Z,944.34
2017-04-26T00:52:11.451Z,944.41
2017-04-26T00:53:14.212Z,944.39
2017-04-26T00:54:10.636Z,944.37
2017-04-26T00:55:13.802Z,944.37
2017-04-26T00:56:14.512Z,944.43
2017-04-26T00:57:15.032Z,944.39
2017-04-26T00:58:13.787Z,944.42
2017-04-26T00:59:14.294Z,944.39
2017-04-26T01:00:13.026Z,944.34
2017-04-26T01:01:13.441Z,944.33
2017-04-26T01:02:14.230Z,944.33
2017-04-26T01:03:13.404Z,944.30
2017-04-26T01:04:14.233Z,944.34
2017-04-26T01:05:14.381Z,944.39
2017-04-26T01:06:15.199Z,944.40
2017-04-26T01:07:13.441Z,944.42
2017-04-26T01:08:13.577Z,944.41
2017-04-26T01:09:16.002Z,944.42
2017-04-26T01:10:10.926Z,944.46
2017-04-26T01:11:13.080Z,944.44
2017-04-26T01:12:12.739Z,944.40
2017-04-26T01:13:13.540Z,944.41
2017-04-26T01:14:11.660Z,944.48
2017-04-26T01:15:11.545Z,944.49
2017-04-26T01:16:10.865Z,944.48
2017-04-26T01:17:12.793Z,944.46
2017-04-26T01:18:11.992Z,944.50
2017-04-26T01:19:12.765Z,944.46
2017-04-26T01:20:13.430Z,944.44
2017-04-26T01:21:13.419Z,944.41
2017-04-26T01:22:12.493Z,944.45
2017-04-26T01:23:13.779Z,944.42
2017-04-26T01:24:12.723Z,944.42
2017-04-26T01:25:12.668Z,944.44
2017-04-26T01:26:14.350Z,944.37
2017-04-26T01:27:13.263Z,944.33
2017-04-26T01:28:11.296Z,944.34
2017-04-26T01:29:12.435Z,944.36
2017-04-26T01:30:15.081Z,944.39
2017-04-26T01:31:12.936Z,944.40
2017-04-26T01:32:12.620Z,944.42
2017-04-26T01:33:12.606Z,944.38
2017-04-26T01:34:13.371Z,944.42
2017-04-26T01:35:12.674Z,944.41
2017-04-26T01:36:15.195Z,944.42
2017-04-26T01:37:12.896Z,944.43
2017-04-26T01:38:12.758Z,944.42
2017-04-26T01:39:11.938Z,944.39
2017-04-26T01:40:12.182Z,944.40
2017-04-26T01:41:10.290Z,944.42
2017-04-26T01:42:12.650Z,944.46
2017-04-26T01:43:13.568Z,944.46
2017-04-26T01:44:13.628Z,944.48
2017-04-26T01:45:13.662Z,944.49
2017-04-26T01:46:13.560Z,944.48
2017-04-26T01:47:13.224Z,944.53
2017-04-26T01:48:13.954Z,944.54
2017-04-26T01:49:12.772Z,944.48
2017-04-26T01:50:10.344Z,944.48
2017-04-26T01:51:12.779Z,944.55
2017-04-26T01:52:10.388Z,944.53
2017-04-26T01:53:13.951Z,944.55
2017-04-26T01:54:11.884Z,944.58
2017-04-26T01:55:12.007Z,944.54
2017-04-26T01:56:13.001Z,944.49
2017-04-26T01:57:12.266Z,944.51
2017-04-26T01:58:12.791Z,944.57
2017-04-26T01:59:12.758Z,944.56
2017-04-26T02:00:12.890Z,944.58
2017-04-26T02:01:12.017Z,944.52
2017-04-26T02:02:09.570Z,944.52
2017-04-26T02:03:12.822Z,944.51
2017-04-26T02:04:13.276Z,944.50
2017-04-26T02:05:13.018Z,944.51
2017-04-26T02:06:12.971Z,944.51
2017-04-26T02:07:12.147Z,944.51
2017-04-26T02:08:12.248Z,944.50
2017-04-26T02:09:11.389Z,944.54
2017-04-26T02:10:13.481Z,944.52
2017-04-26T02:11:12.686Z,944.58
2017-04-26T02:12:12.990Z,944.59
2017-04-26T02:13:12.589Z,944.60
2017-04-26T02:14:12.599Z,944.58
2017-04-26T02:15:14.245Z,944.62
2017-04-26T02:16:13.919Z,944.61
2017-04-26T02:17:12.258Z,944.64
2017-04-26T02:18:11.283Z,944.63
2017-04-26T02:19:14.491Z,944.63
2017-04-26T02:20:14.403Z,944.64
2017-04-26T02:21:12.504Z,944.66
2017-04-26T02:22:14.201Z,944.70
2017-04-26T02:23:14.181Z,944.71
2017-04-26T02:24:12.228Z,944.74
2017-04-26T02:25:12.901Z,944.74
2017-04-26T02:26:12.810Z,944.69
2017-04-26T02:27:12.030Z,944.67
2017-04-26T02:28:12.344Z,944.62
2017-04-26T02:29:13.301Z,944.68
2017-04-26T02:30:12.829Z,944.64
2017-04-26T02:31:12.494Z,944.57
2017-04-26T02:32:11.806Z,944.56
2017-04-26T02:33:12.803Z,944.57
2017-04-26T02:34:10.844Z,944.59
2017-04-26T02:35:13.489Z,944.59
2017-04-26T02:36:13.070Z,944.59
2017-04-26T02:37:12.218Z,944.60
2017-04-26T02:38:12.808Z,944.61
2017-04-26T02:39:12.774Z,944.57
2017-04-26T02:40:12.494Z,944.50
2017-04-26T02:41:12.517Z,944.48
2017-04-26T02:42:13.302Z,944.46
2017-04-26T02:43:13.441Z,944.52
2017-04-26T02:44:12.796Z,944.56
2017-04-26T02:45:13.737Z,944.52
2017-04-26T02:46:12.715Z,944.53
2017-04-26T02:47:13.370Z,944.52
2017-04-26T02:48:09.729Z,944.50
2017-04-26T02:49:12.965Z,944.49
2017-04-26T02:50:12.048Z,944.45
2017-04-26T02:51:13.353Z,944.46
2017-04-26T02:52:13.420Z,944.51
2017-04-26T02:53:13.395Z,944.46
2017-04-26T02:54:13.579Z,944.46
2017-04-26T02:55:13.996Z,944.44
2017-04-26T02:56:13.501Z,944.43
2017-04-26T02:57:10.802Z,944.42
2017-04-26T02:58:12.169Z,944.49
2017-04-26T02:59:12.640Z,944.49
2017-04-26T03:00:12.495Z,944.42
2017-04-26T03:01:13.049Z,944.45
2017-04-26T03:02:12.874Z,944.44
2017-04-26T03:03:11.996Z,944.46
2017-04-26T03:04:12.839Z,944.50
2017-04-26T03:05:11.901Z,944.48
2017-04-26T03:06:12.908Z,944.50
2017-04-26T03:07:12.499Z,944.47
2017-04-26T03:08:12.984Z,944.40
2017-04-26T03:09:12.796Z,944.39
2017-04-26T03:10:12.734Z,944.36
2017-04-26T03:11:13.663Z,944.39
2017-04-26T03:12:12.976Z,944.34
2017-04-26T03:13:11.929Z,944.29
2017-04-26T03:14:11.960Z,944.34
2017-04-26T03:15:13.035Z,944.35
2017-04-26T03:16:13.502Z,944.39
2017-04-26T03:17:13.796Z,944.39
2017-04-26T03:18:11.772Z,944.38
2017-04-26T03:19:11.809Z,944.39
2017-04-26T03:20:12.628Z,944.40
2017-04-26T03:21:13.008Z,944.39
2017-04-26T03:22:12.108Z,944.34
2017-04-26T03:23:12.778Z,944.36
2017-04-26T03:24:12.865Z,944.33
2017-04-26T03:25:12.734Z,944.39
2017-04-26T03:26:12.941Z,944.41
2017-04-26T03:27:13.868Z,944.45
2017-04-26T03:28:12.413Z,944.47
2017-04-26T03:29:12.916Z,944.48
2017-04-26T03:30:11.885Z,944.46
2017-04-26T03:31:13.197Z,944.47
2017-04-26T03:32:13.059Z,944.50
2017-04-26T03:33:10.253Z,944.53
2017-04-26T03:34:12.620Z,944.53
2017-04-26T03:35:12.766Z,944.54
2017-04-26T03:36:12.675Z,944.48
2017-04-26T03:37:13.952Z,944.48
2017-04-26T03:38:12.719Z,944.53
2017-04-26T03:39:12.932Z,944.50
2017-04-26T03:40:13.416Z,944.56
2017-04-26T03:41:11.141Z,944.51
2017-04-26T03:42:13.256Z,944.53
2017-04-26T03:43:12.887Z,944.55
2017-04-26T03:44:10.951Z,944.55
2017-04-26T03:45:11.992Z,944.57
2017-04-26T03:46:13.305Z,944.54
2017-04-26T03:47:12.789Z,944.55
2017-04-26T03:48:12.425Z,944.58
2017-04-26T03:49:13.107Z,944.57
2017-04-26T03:50:13.331Z,944.60
2017-04-26T03:51:12.999Z,944.60
2017-04-26T03:52:11.985Z,944.59
2017-04-26T03:53:13.986Z,944.55
2017-04-26T03:54:12.243Z,944.58
2017-04-26T03:55:12.279Z,944.55
2017-04-26T03:56:12.778Z,944.53
2017-04-26T03:57:11.916Z,944.52
2017-04-26T03:58:12.051Z,944.53
2017-04-26T03:59:13.591Z,944.50
2017-04-26T04:00:12.772Z,944.48
2017-04-26T04:01:14.003Z,944.48
2017-04-26T04:02:11.860Z,944.47
2017-04-26T04:03:12.603Z,944.47
2017-04-26T04:04:12.839Z,944.45
2017-04-26T04:05:12.543Z,944.46
2017-04-26T04:06:13.126Z,944.42
2017-04-26T04:07:12.382Z,944.41
2017-04-26T04:08:12.501Z,944.44
2017-04-26T04:09:14.157Z,944.40
2017-04-26T04:10:12.374Z,944.40
2017-04-26T04:11:12.796Z,944.42
2017-04-26T04:12:12.672Z,944.45
2017-04-26T04:13:12.718Z,944.40
2017-04-26T04:14:13.543Z,944.37
2017-04-26T04:15:12.809Z,944.40
2017-04-26T04:16:13.577Z,944.36
2017-04-26T04:17:11.183Z,944.42
2017-04-26T04:18:12.922Z,944.39
2017-04-26T04:19:10.915Z,944.42
2017-04-26T04:20:14.304Z,944.43
2017-04-26T04:21:10.485Z,944.45
2017-04-26T04:22:14.149Z,944.46
2017-04-26T04:23:12.617Z,944.45
2017-04-26T04:24:12.592Z,944.49
2017-04-26T04:25:16.795Z,944.51
2017-04-26T04:26:11.891Z,944.55
2017-04-26T04:27:12.931Z,944.52
2017-04-26T04:28:12.858Z,944.56
2017-04-26T04:29:13.379Z,944.55
2017-04-26T04:30:13.090Z,944.49
2017-04-26T04:31:12.917Z,944.52
2017-04-26T04:32:10.976Z,944.54
2017-04-26T04:33:12.596Z,944.57
2017-04-26T04:34:13.685Z,944.58
2017-04-26T04:35:12.703Z,944.59
2017-04-26T04:36:13.412Z,944.60
2017-04-26T04:37:13.016Z,944.63
2017-04-26T04:38:12.020Z,944.63
2017-04-26T04:39:13.380Z,944.62
2017-04-26T04:40:12.599Z,944.60
2017-04-26T04:41:14.272Z,944.59
2017-04-26T04:42:12.623Z,944.58
2017-04-26T04:43:13.969Z,944.56
2017-04-26T04:44:12.661Z,944.55
2017-04-26T04:45:12.783Z,944.56
2017-04-26T04:46:12.588Z,944.55
2017-04-26T04:47:12.802Z,944.56
2017-04-26T04:48:11.822Z,944.58
2017-04-26T04:49:11.875Z,944.52
2017-04-26T04:50:12.485Z,944.55
2017-04-26T04:51:13.005Z,944.57
2017-04-26T04:52:12.250Z,944.59
2017-04-26T04:53:12.940Z,944.62
2017-04-26T04:54:14.059Z,944.68
2017-04-26T04:55:13.634Z,944.73
2017-04-26T04:56:12.845Z,944.73
2017-04-26T04:57:12.185Z,944.71
2017-04-26T04:58:12.444Z,944.73
2017-04-26T04:59:15.357Z,944.71
2017-04-26T05:00:13.496Z,944.70
2017-04-26T05:01:11.663Z,944.71
2017-04-26T05:02:13.485Z,944.67
2017-04-26T05:03:13.374Z,944.70
2017-04-26T05:04:12.542Z,944.73
2017-04-26T05:05:13.253Z,944.74
2017-04-26T05:06:11.206Z,944.74
2017-04-26T05:07:12.417Z,944.72
2017-04-26T05:08:14.233Z,944.74
2017-04-26T05:09:12.333Z,944.70
2017-04-26T05:10:13.409Z,944.67
2017-04-26T05:11:12.604Z,944.73
2017-04-26T05:12:13.338Z,944.72
2017-04-26T05:13:12.911Z,944.78
2017-04-26T05:14:12.914Z,944.80
2017-04-26T05:15:12.436Z,944.79
2017-04-26T05:16:13.109Z,944.78
2017-04-26T05:17:12.250Z,944.82
2017-04-26T05:18:12.426Z,944.81
2017-04-26T05:19:13.125Z,944.83
2017-04-26T05:20:12.401Z,944.90
2017-04-26T05:21:13.005Z,944.89
2017-04-26T05:22:12.966Z,944.90
2017-04-26T05:23:13.003Z,944.90
2017-04-26T05:24:10.287Z,944.92
2017-04-26T05:25:12.789Z,944.86
2017-04-26T05:26:12.634Z,944.87
2017-04-26T05:27:14.611Z,944.87
2017-04-26T05:28:12.777Z,944.87
2017-04-26T05:29:11.934Z,944.88
2017-04-26T05:30:13.917Z,944.93
2017-04-26T05:31:12.796Z,944.98
2017-04-26T05:32:12.440Z,944.99
2017-04-26T05:33:12.587Z,945.01
2017-04-26T05:34:12.787Z,945.01
2017-04-26T05:35:12.549Z,945.02
2017-04-26T05:36:11.224Z,945.10
2017-04-26T05:37:13.419Z,945.07
2017-04-26T05:38:12.421Z,945.10
2017-04-26T05:39:12.176Z,945.09
2017-04-26T05:40:12.906Z,945.10
2017-04-26T05:41:12.556Z,945.19
2017-04-26T05:42:14.339Z,945.13
2017-04-26T05:43:11.284Z,945.17
2017-04-26T05:44:12.636Z,945.15
2017-04-26T05:45:13.421Z,945.14
2017-04-26T05:46:14.202Z,945.12
2017-04-26T05:47:12.611Z,945.09
2017-04-26T05:48:12.823Z,945.10
2017-04-26T05:49:13.278Z,945.14
2017-04-26T05:50:13.043Z,945.17
2017-04-26T05:51:13.405Z,945.18
2017-04-26T05:52:16.966Z,945.16
2017-04-26T05:53:13.710Z,945.17
2017-04-26T05:54:11.909Z,945.13
2017-04-26T05:55:12.049Z,945.12
2017-04-26T05:56:10.682Z,945.08
2017-04-26T05:57:12.370Z,945.09
2017-04-26T05:58:13.172Z,945.09
2017-04-26T05:59:12.234Z,945.13
2017-04-26T06:00:10.368Z,945.06
2017-04-26T06:01:13.399Z,945.04
2017-04-26T06:02:13.272Z,945.04
2017-04-26T06:03:14.100Z,944.99
2017-04-26T06:04:13.236Z,945.00
2017-04-26T06:05:13.294Z,944.99
2017-04-26T06:06:14.024Z,945.01
2017-04-26T06:07:12.247Z,944.93
2017-04-26T06:08:13.053Z,944.96
2017-04-26T06:09:11.056Z,944.92
2017-04-26T06:10:12.308Z,944.99
2017-04-26T06:11:10.966Z,944.96
2017-04-26T06:12:13.122Z,945.01
2017-04-26T06:13:12.994Z,944.98
2017-04-26T06:14:12.261Z,944.95
2017-04-26T06:15:12.998Z,945.02
2017-04-26T06:16:13.061Z,945.05
2017-04-26T06:17:12.247Z,945.03
2017-04-26T06:18:11.227Z,945.02
2017-04-26T06:19:12.942Z,944.93
2017-04-26T06:20:11.949Z,944.94
2017-04-26T06:21:12.805Z,944.88
2017-04-26T06:22:11.895Z,944.83
2017-04-26T06:23:12.791Z,944.78
2017-04-26T06:24:12.605Z,944.75
2017-04-26T06:25:13.384Z,944.78
2017-04-26T06:26:13.736Z,944.76
2017-04-26T06:27:12.888Z,944.77
2017-04-26T06:28:13.817Z,944.77
2017-04-26T06:29:12.843Z,944.78
2017-04-26T06:30:12.564Z,944.77
2017-04-26T06:31:13.411Z,944.76
2017-04-26T06:32:13.021Z,944.83
2017-04-26T06:33:12.162Z,944.82
2017-04-26T06:34:14.986Z,944.85
2017-04-26T06:35:12.610Z,944.91
2017-04-26T06:36:15.582Z,945.03
2017-04-26T06:37:12.584Z,945.04
2017-04-26T06:38:13.526Z,945.09
2017-04-26T06:39:14.219Z,945.12
2017-04-26T06:40:13.085Z,945.14
2017-04-26T06:41:12.750Z,945.13
2017-04-26T06:42:13.471Z,945.14
2017-04-26T06:43:12.330Z,945.17
2017-04-26T06:44:12.641Z,945.16
2017-04-26T06:45:13.358Z,945.16
2017-04-26T06:46:14.276Z,945.11
2017-04-26T06:47:13.446Z,945.14
2017-04-26T06:48:12.665Z,945.10
2017-04-26T06:49:12.821Z,945.10
2017-04-26T06:50:12.831Z,945.09
2017-04-26T06:51:10.561Z,945.08
2017-04-26T06:56:13.438Z,945.01
2017-04-26T06:57:13.863Z,945.04
2017-04-26T06:58:13.647Z,945.03
2017-04-26T06:59:13.416Z,945.05
2017-04-26T07:00:13.038Z,945.06
2017-04-26T07:01:13.595Z,945.09
2017-04-26T07:02:16.095Z,945.09
2017-04-26T07:03:14.865Z,945.10
2017-04-26T07:04:12.310Z,945.09
2017-04-26T07:05:13.923Z,945.05
2017-04-26T07:06:12.439Z,944.98
2017-04-26T07:07:12.772Z,944.98
2017-04-26T07:08:13.472Z,944.95
2017-04-26T07:09:13.576Z,944.95
2017-04-26T07:10:10.133Z,944.96
2017-04-26T07:11:14.067Z,945.00
2017-04-26T07:12:13.090Z,945.03
2017-04-26T07:13:14.237Z,945.07
2017-04-26T07:14:12.300Z,945.08
2017-04-26T07:15:12.606Z,945.12
2017-04-26T07:16:14.814Z,945.11
2017-04-26T07:17:12.044Z,945.13
2017-04-26T07:18:12.351Z,945.14
2017-04-26T07:19:14.239Z,945.12
2017-04-26T07:20:13.990Z,945.13
2017-04-26T07:21:12.142Z,945.13
2017-04-26T07:22:12.243Z,945.14
2017-04-26T07:23:13.021Z,945.13
2017-04-26T07:24:12.842Z,945.13
2017-04-26T07:25:12.692Z,945.08
2017-04-26T07:26:12.356Z,945.09
2017-04-26T07:27:12.527Z,945.08
2017-04-26T07:28:12.610Z,945.06
2017-04-26T07:29:14.275Z,945.01
2017-04-26T07:30:10.323Z,945.02
2017-04-26T07:31:12.305Z,945.05
2017-04-26T07:32:12.844Z,945.01
2017-04-26T07:33:11.903Z,945.08
2017-04-26T07:34:12.595Z,945.09
2017-04-26T07:35:14.624Z,945.10
2017-04-26T07:36:13.417Z,945.12
2017-04-26T07:37:13.024Z,945.08
2017-04-26T07:38:12.052Z,945.06
2017-04-26T07:39:13.003Z,945.07
2017-04-26T07:40:12.709Z,945.07
2017-04-26T07:41:11.370Z,945.06
2017-04-26T07:42:12.793Z,945.06
2017-04-26T07:43:12.998Z,945.08
2017-04-26T07:44:12.118Z,945.11
2017-04-26T07:45:12.429Z,945.08
2017-04-26T07:46:13.154Z,945.09
2017-04-26T07:47:12.613Z,945.05
2017-04-26T07:48:12.604Z,945.07
2017-04-26T07:49:13.000Z,945.09
2017-04-26T07:50:12.032Z,945.05
2017-04-26T07:51:12.340Z,945.02
2017-04-26T07:52:12.436Z,945.05
2017-04-26T07:53:12.511Z,945.03
2017-04-26T07:54:13.412Z,945.02
2017-04-26T07:55:13.350Z,945.03
2017-04-26T07:56:13.175Z,945.03
2017-04-26T07:57:12.265Z,945.07
2017-04-26T07:58:12.280Z,945.08
2017-04-26T07:59:12.930Z,945.03
2017-04-26T08:00:13.622Z,945.12
2017-04-26T08:01:12.857Z,945.14
2017-04-26T08:02:12.002Z,945.16
2017-04-26T08:03:12.210Z,945.19
2017-04-26T08:04:13.080Z,945.22
2017-04-26T08:05:12.834Z,945.19
2017-04-26T08:06:13.524Z,945.20
2017-04-26T08:07:13.411Z,945.14
2017-04-26T08:08:14.741Z,945.15
2017-04-26T08:09:12.811Z,945.13
2017-04-26T08:10:12.917Z,945.17
2017-04-26T08:11:11.033Z,945.15
2017-04-26T08:12:12.482Z,945.09
2017-04-26T08:13:12.652Z,945.13
2017-04-26T08:14:13.663Z,945.13
2017-04-26T08:15:11.577Z,945.13
2017-04-26T08:16:11.930Z,945.12
2017-04-26T08:17:12.450Z,945.14
2017-04-26T08:18:13.421Z,945.10
2017-04-26T08:19:12.927Z,945.14
2017-04-26T08:20:12.226Z,945.13
2017-04-26T08:21:12.448Z,945.13
2017-04-26T08:22:12.656Z,945.18
2017-04-26T08:23:12.838Z,945.25
2017-04-26T08:24:13.049Z,945.20
2017-04-26T08:25:13.852Z,945.21
2017-04-26T08:26:13.647Z,945.21
2017-04-26T08:27:13.409Z,945.24
2017-04-26T08:28:13.151Z,945.20
2017-04-26T08:29:13.769Z,945.19
2017-04-26T08:30:11.724Z,945.21
2017-04-26T08:31:13.508Z,945.26
2017-04-26T08:32:12.896Z,945.22
2017-04-26T08:33:12.601Z,945.25
2017-04-26T08:34:12.798Z,945.24
2017-04-26T08:35:11.873Z,945.23
2017-04-26T08:36:12.762Z,945.29
2017-04-26T08:37:09.953Z,945.31
2017-04-26T08:38:13.018Z,945.29
2017-04-26T08:39:13.785Z,945.32
2017-04-26T08:40:12.515Z,945.30
2017-04-26T08:41:13.256Z,945.36
2017-04-26T08:42:14.838Z,945.35
2017-04-26T08:43:12.602Z,945.35
2017-04-26T08:44:13.322Z,945.35
2017-04-26T08:45:11.217Z,945.36
2017-04-26T08:46:12.537Z,945.35
2017-04-26T08:47:13.036Z,945.34
2017-04-26T08:48:12.765Z,945.35
2017-04-26T08:49:11.695Z,945.33
2017-04-26T08:50:12.592Z,945.34
2017-04-26T08:51:12.713Z,945.37
2017-04-26T08:52:10.889Z,945.39
2017-04-26T08:53:12.494Z,945.39
2017-04-26T08:54:13.420Z,945.39
2017-04-26T08:55:12.701Z,945.40
2017-04-26T08:56:12.881Z,945.39
2017-04-26T08:57:12.123Z,945.37
2017-04-26T08:58:12.822Z,945.37
2017-04-26T08:59:11.880Z,945.39
2017-04-26T09:00:12.021Z,945.37
2017-04-26T09:01:12.099Z,945.42
2017-04-26T09:02:12.774Z,945.38
2017-04-26T09:03:11.731Z,945.36
2017-04-26T09:04:12.609Z,945.37
2017-04-26T09:05:10.618Z,945.38
2017-04-26T09:06:13.771Z,945.37
2017-04-26T09:07:11.849Z,945.41
2017-04-26T09:08:12.471Z,945.43
2017-04-26T09:09:13.539Z,945.41
2017-04-26T09:10:13.361Z,945.46
2017-04-26T09:11:12.446Z,945.47
2017-04-26T09:12:13.682Z,945.47
2017-04-26T09:13:12.631Z,945.49
2017-04-26T09:14:14.321Z,945.43
2017-04-26T09:15:13.817Z,945.46
2017-04-26T09:16:12.650Z,945.46
2017-04-26T09:17:11.360Z,945.45
2017-04-26T09:18:12.813Z,945.45
2017-04-26T09:19:15.330Z,945.47
2017-04-26T09:20:12.998Z,945.50
2017-04-26T09:21:11.249Z,945.51
2017-04-26T09:22:12.550Z,945.57
2017-04-26T09:23:13.627Z,945.62
2017-04-26T09:24:12.651Z,945.59
2017-04-26T09:25:12.824Z,945.62
2017-04-26T09:26:10.026Z,945.63
2017-04-26T09:27:12.979Z,945.70
2017-04-26T09:28:12.612Z,945.70
2017-04-26T09:29:13.352Z,945.70
2017-04-26T09:30:13.114Z,945.73
2017-04-26T09:31:12.246Z,945.71
2017-04-26T09:32:13.015Z,945.70
2017-04-26T09:33:12.742Z,945.73
2017-04-26T09:34:13.128Z,945.73
2017-04-26T09:35:12.678Z,945.71
2017-04-26T09:36:13.266Z,945.70
2017-04-26T09:37:12.455Z,945.70
2017-04-26T09:38:12.996Z,945.73
2017-04-26T09:39:11.097Z,945.71
2017-04-26T09:40:12.239Z,945.70
2017-04-26T09:41:13.998Z,945.73
2017-04-26T09:42:12.289Z,945.78
2017-04-26T09:43:12.943Z,945.72
2017-04-26T09:44:10.852Z,945.72
2017-04-26T09:45:11.887Z,945.69
2017-04-26T09:46:10.560Z,945.69
2017-04-26T09:47:11.888Z,945.74
2017-04-26T09:48:12.030Z,945.69
2017-04-26T09:49:13.087Z,945.70
2017-04-26T09:50:12.215Z,945.72
2017-04-26T09:51:12.825Z,945.73
2017-04-26T09:52:11.708Z,945.70
2017-04-26T09:53:12.824Z,945.74
2017-04-26T09:54:12.312Z,945.80
2017-04-26T09:55:13.408Z,945.81
2017-04-26T09:56:13.249Z,945.86
2017-04-26T09:57:12.472Z,945.85
2017-04-26T09:58:12.259Z,945.93
2017-04-26T09:59:12.431Z,945.93
2017-04-26T10:00:13.185Z,945.95
2017-04-26T10:01:12.784Z,945.98
2017-04-26T10:02:11.907Z,946.00
2017-04-26T10:03:12.754Z,945.98
2017-04-26T10:04:14.226Z,946.01
2017-04-26T10:05:12.786Z,946.02
2017-04-26T10:06:13.575Z,946.05
2017-04-26T10:07:14.279Z,946.06
2017-04-26T10:08:13.673Z,946.04
2017-04-26T10:09:13.376Z,946.06
2017-04-26T10:10:13.219Z,946.04
2017-04-26T10:11:12.289Z,946.05
2017-04-26T10:12:12.452Z,946.06
2017-04-26T10:13:11.418Z,946.08
2017-04-26T10:15:02.496Z,946.10
2017-04-26T10:15:12.868Z,946.11
2017-04-26T10:16:12.675Z,946.10
2017-04-26T10:17:14.004Z,946.11
2017-04-26T10:18:12.777Z,946.18
2017-04-26T10:19:12.527Z,946.20
2017-04-26T10:20:12.643Z,946.25
2017-04-26T10:21:13.381Z,946.19
2017-04-26T10:22:14.255Z,946.24
2017-04-26T10:23:12.266Z,946.24
2017-04-26T10:24:12.455Z,946.22
2017-04-26T10:25:13.393Z,946.22
2017-04-26T10:26:12.569Z,946.26
2017-04-26T10:27:12.842Z,946.29
2017-04-26T10:28:53.803Z,946.29
2017-04-26T10:29:11.742Z,946.31
2017-04-26T10:30:13.016Z,946.30
2017-04-26T10:31:12.168Z,946.29
2017-04-26T10:32:12.431Z,946.29
2017-04-26T10:33:14.240Z,946.27
2017-04-26T10:34:12.405Z,946.26
2017-04-26T10:35:12.419Z,946.28
2017-04-26T10:36:11.747Z,946.28
2017-04-26T10:37:12.466Z,946.30
2017-04-26T10:38:12.584Z,946.28
2017-04-26T10:39:11.732Z,946.33
2017-04-26T10:40:12.823Z,946.32
2017-04-26T10:41:11.803Z,946.32
2017-04-26T10:42:11.938Z,946.43
2017-04-26T10:43:12.119Z,946.40
2017-04-26T10:44:12.254Z,946.41
2017-04-26T10:45:12.359Z,946.43
2017-04-26T10:46:12.573Z,946.43
2017-04-26T10:47:09.568Z,946.45
2017-04-26T10:48:11.081Z,946.42
2017-04-26T10:49:18.346Z,946.51
2017-04-26T10:50:11.185Z,946.53
2017-04-26T10:51:12.358Z,946.48
2017-04-26T10:52:13.074Z,946.51
2017-04-26T10:53:14.360Z,946.49
2017-04-26T10:54:13.217Z,946.53
2017-04-26T10:55:16.862Z,946.55
2017-04-26T10:56:12.417Z,946.54
2017-04-26T10:57:11.264Z,946.54
2017-04-26T10:58:13.397Z,946.56
2017-04-26T10:59:13.155Z,946.58
2017-04-26T11:00:12.179Z,946.58
2017-04-26T11:01:12.808Z,946.60
2017-04-26T11:02:12.286Z,946.58
2017-04-26T11:03:12.851Z,946.58
2017-04-26T11:04:11.870Z,946.59
2017-04-26T11:05:12.610Z,946.58
2017-04-26T11:06:13.635Z,946.61
2017-04-26T11:07:12.891Z,946.61
2017-04-26T11:08:11.942Z,946.61
2017-04-26T11:09:12.863Z,946.65
2017-04-26T11:10:11.750Z,946.63
2017-04-26T11:11:11.866Z,946.66
2017-04-26T11:12:12.002Z,946.71
2017-04-26T11:13:12.575Z,946.67
2017-04-26T11:14:13.481Z,946.68
2017-04-26T11:15:12.706Z,946.71
2017-04-26T11:16:12.820Z,946.68
2017-04-26T11:17:12.035Z,946.71
2017-04-26T11:18:13.003Z,946.68
2017-04-26T11:19:12.574Z,946.66
2017-04-26T11:20:12.742Z,946.69
2017-04-26T11:21:13.349Z,946.70
2017-04-26T11:22:12.377Z,946.78
2017-04-26T11:23:12.455Z,946.79
2017-04-26T11:24:12.994Z,946.77
2017-04-26T11:25:12.437Z,946.80
2017-04-26T11:26:11.129Z,946.80
2017-04-26T11:27:12.704Z,946.79
2017-04-26T11:28:13.346Z,946.71
2017-04-26T11:29:13.163Z,946.77
2017-04-26T11:30:12.136Z,946.70
2017-04-26T11:31:12.895Z,946.76
2017-04-26T11:32:12.001Z,946.74
2017-04-26T11:33:12.660Z,946.76
2017-04-26T11:34:13.368Z,946.81
2017-04-26T11:35:12.861Z,946.75
2017-04-26T11:36:13.910Z,946.75
2017-04-26T11:37:11.959Z,946.74
2017-04-26T11:38:13.064Z,946.75
2017-04-26T11:39:12.284Z,946.77
2017-04-26T11:40:12.410Z,946.74
2017-04-26T11:41:12.413Z,946.76
2017-04-26T11:42:12.758Z,946.77
2017-04-26T11:43:12.381Z,946.69
2017-04-26T11:44:13.107Z,946.70
2017-04-26T11:45:12.701Z,946.70
2017-04-26T11:46:12.927Z,946.74
2017-04-26T11:47:12.550Z,946.78
2017-04-26T11:48:11.404Z,946.72
2017-04-26T11:49:13.304Z,946.73
2017-04-26T11:50:12.967Z,946.71
2017-04-26T11:51:13.634Z,946.70
2017-04-26T11:52:13.619Z,946.71
2017-04-26T11:53:12.682Z,946.75
2017-04-26T11:54:12.849Z,946.80
2017-04-26T11:55:12.563Z,946.76
2017-04-26T11:56:12.605Z,946.81
2017-04-26T11:57:12.674Z,946.81
2017-04-26T11:58:13.011Z,946.83
2017-04-26T11:59:12.014Z,946.86
2017-04-26T12:00:13.081Z,946.84
2017-04-26T12:01:12.104Z,946.86
2017-04-26T12:02:13.043Z,946.85
2017-04-26T12:03:12.232Z,946.85
2017-04-26T12:04:13.975Z,946.82
2017-04-26T12:05:15.473Z,946.83
2017-04-26T12:06:13.774Z,946.90
2017-04-26T12:07:12.756Z,946.88
2017-04-26T12:08:13.831Z,946.93
2017-04-26T12:09:15.019Z,946.96
2017-04-26T12:10:12.969Z,946.94
2017-04-26T12:11:12.651Z,946.97
2017-04-26T12:12:13.050Z,946.95
2017-04-26T12:13:13.775Z,946.98
2017-04-26T12:14:11.790Z,946.94
2017-04-26T12:15:10.899Z,946.91
2017-04-26T12:16:10.740Z,946.91
2017-04-26T12:17:10.579Z,946.87
2017-04-26T12:18:14.108Z,946.93
2017-04-26T12:19:13.904Z,946.90
2017-04-26T12:20:14.315Z,946.94
2017-04-26T12:21:13.316Z,946.98
2017-04-26T12:22:14.451Z,946.97
2017-04-26T12:23:11.083Z,946.96
2017-04-26T12:24:12.804Z,946.96
2017-04-26T12:25:15.700Z,946.99
2017-04-26T12:26:14.869Z,947.00
2017-04-26T12:27:13.494Z,947.02
2017-04-26T12:28:15.082Z,947.01
2017-04-26T12:29:13.499Z,947.04
2017-04-26T12:30:14.332Z,947.06
2017-04-26T12:31:12.401Z,947.05
2017-04-26T12:32:12.579Z,947.04